createdAt,value
2022-11-25T00:00:00.565Z,23.08
2022-11-25T00:00:13.042Z,22.45
2022-11-25T00:00:24.935Z,20.67
2022-11-25T00:00:36.862Z,20.92
2022-11-25T00:00:49.301Z,20.05
2022-11-25T00:01:12.352Z,19.10
2022-11-25T00:01:26.921Z,19.38
2022-11-25T00:01:38.841Z,17.30
2022-11-25T00:01:51.594Z,17.30
2022-11-25T00:02:03.603Z,20.13
2022-11-25T00:02:15.632Z,21.73
2022-11-25T00:02:27.697Z,22.38
2022-11-25T00:02:44.620Z,21.73
2022-11-25T00:02:56.689Z,20.30
2022-11-25T00:03:08.758Z,18.02
2022-11-25T00:03:20.767Z,17.73
2022-11-25T00:03:32.999Z,18.85
2022-11-25T00:03:46.259Z,18.55
2022-11-25T00:03:59.088Z,19.63
2022-11-25T00:04:11.051Z,20.85
2022-11-25T00:04:22.963Z,20.38
2022-11-25T00:04:37.121Z,21.05
2022-11-25T00:04:49.240Z,20.88
2022-11-25T00:05:01.108Z,19.92
2022-11-25T00:05:13.253Z,19.73
2022-11-25T00:05:26.541Z,17.88
2022-11-25T00:05:38.521Z,18.65
2022-11-25T00:05:50.441Z,17.70
2022-11-25T00:06:26.383Z,17.63
2022-11-25T00:06:38.386Z,19.63
2022-11-25T00:06:50.331Z,19.02
2022-11-25T00:07:03.088Z,18.65
2022-11-25T00:07:15.003Z,17.05
2022-11-25T00:07:26.973Z,18.27
2022-11-25T00:07:39.109Z,20.15
2022-11-25T00:07:51.156Z,20.80
2022-11-25T00:08:03.146Z,19.45
2022-11-25T00:08:15.059Z,18.50
2022-11-25T00:08:28.262Z,18.02
2022-11-25T00:08:41.752Z,18.83
2022-11-25T00:08:56.792Z,17.73
2022-11-25T00:09:12.417Z,17.23
2022-11-25T00:09:24.381Z,17.67
2022-11-25T00:09:36.390Z,18.30
2022-11-25T00:09:48.303Z,16.90
2022-11-25T00:10:00.183Z,17.35
2022-11-25T00:10:12.090Z,17.35
2022-11-25T00:10:24.046Z,18.90
2022-11-25T00:10:36.140Z,20.20
2022-11-25T00:10:48.086Z,21.23
2022-11-25T00:11:03.281Z,16.33
2022-11-25T00:11:16.086Z,15.25
2022-11-25T00:11:28.715Z,15.18
2022-11-25T00:11:42.347Z,15.80
2022-11-25T00:11:54.250Z,17.25
2022-11-25T00:12:06.306Z,18.27
2022-11-25T00:12:18.304Z,18.95
2022-11-25T00:12:30.185Z,17.65
2022-11-25T00:12:42.100Z,16.65
2022-11-25T00:12:53.980Z,16.95
2022-11-25T00:13:05.866Z,18.15
2022-11-25T00:13:17.738Z,17.15
2022-11-25T00:13:29.748Z,16.70
2022-11-25T00:13:42.978Z,17.65
2022-11-25T00:13:56.393Z,18.42
2022-11-25T00:14:12.160Z,19.70
2022-11-25T00:14:24.104Z,19.17
2022-11-25T00:14:36.317Z,18.05
2022-11-25T00:14:48.446Z,15.85
2022-11-25T00:15:00.334Z,14.52
2022-11-25T00:15:12.230Z,14.57
2022-11-25T00:15:24.177Z,15.68
2022-11-25T00:15:36.092Z,16.50
2022-11-25T00:15:48.104Z,15.85
2022-11-25T00:16:04.237Z,16.83
2022-11-25T00:16:18.644Z,15.90
2022-11-25T00:16:30.625Z,15.57
2022-11-25T00:16:47.923Z,16.02
2022-11-25T00:17:00.418Z,16.38
2022-11-25T00:17:12.379Z,17.30
2022-11-25T00:17:24.330Z,19.27
2022-11-25T00:17:36.355Z,17.05
2022-11-25T00:17:48.230Z,18.30
2022-11-25T00:18:00.090Z,15.82
2022-11-25T00:18:12.003Z,15.02
2022-11-25T00:18:23.944Z,14.88
2022-11-25T00:18:36.323Z,18.50
2022-11-25T00:18:50.749Z,19.20
2022-11-25T00:19:02.989Z,18.27
2022-11-25T00:19:14.863Z,18.42
2022-11-25T00:19:26.784Z,16.98
2022-11-25T00:19:38.707Z,16.70
2022-11-25T00:19:50.932Z,16.17
2022-11-25T00:20:05.889Z,15.98
2022-11-25T00:20:20.383Z,15.50
2022-11-25T00:20:32.296Z,15.23
2022-11-25T00:20:44.215Z,15.15
2022-11-25T00:20:56.120Z,15.10
2022-11-25T00:21:10.202Z,14.10
2022-11-25T00:21:24.879Z,15.30
2022-11-25T00:21:36.782Z,17.90
2022-11-25T00:21:48.748Z,16.13
2022-11-25T00:22:00.612Z,14.25
2022-11-25T00:22:12.564Z,14.60
2022-11-25T00:22:24.490Z,15.30
2022-11-25T00:22:36.978Z,15.90
2022-11-25T00:22:48.891Z,16.30
2022-11-25T00:23:00.823Z,16.48
2022-11-25T00:23:12.944Z,15.43
2022-11-25T00:23:27.956Z,13.77
2022-11-25T00:23:42.498Z,13.00
2022-11-25T00:23:56.967Z,13.18
2022-11-25T00:24:08.879Z,15.10
2022-11-25T00:24:20.781Z,18.27
2022-11-25T00:24:32.767Z,17.10
2022-11-25T00:24:44.764Z,15.70
2022-11-25T00:24:56.623Z,15.82
2022-11-25T00:25:08.909Z,16.35
2022-11-25T00:25:20.820Z,15.93
2022-11-25T00:25:32.734Z,16.05
2022-11-25T00:25:44.624Z,13.75
2022-11-25T00:25:56.540Z,14.05
2022-11-25T00:26:17.583Z,13.63
2022-11-25T00:26:32.732Z,13.90
2022-11-25T00:26:44.928Z,14.25
2022-11-25T00:26:56.853Z,15.15
2022-11-25T00:27:08.915Z,15.50
2022-11-25T00:27:20.792Z,13.93
2022-11-25T00:27:32.686Z,16.27
2022-11-25T00:27:44.609Z,15.70
2022-11-25T00:27:56.481Z,13.23
2022-11-25T00:28:08.363Z,11.45
2022-11-25T00:28:20.225Z,11.70
2022-11-25T00:28:32.100Z,13.15
2022-11-25T00:28:45.965Z,13.40
2022-11-25T00:28:59.689Z,13.30
2022-11-25T00:29:13.758Z,11.98
2022-11-25T00:29:25.661Z,14.18
2022-11-25T00:29:37.589Z,14.20
2022-11-25T00:29:49.461Z,11.55
2022-11-25T00:30:01.407Z,11.18
2022-11-25T00:30:13.693Z,14.15
2022-11-25T00:30:25.668Z,16.30
2022-11-25T00:30:37.698Z,16.45
2022-11-25T00:30:49.621Z,15.30
2022-11-25T00:31:09.680Z,15.35
2022-11-25T00:31:27.568Z,14.68
2022-11-25T00:31:41.031Z,14.18
2022-11-25T00:31:53.026Z,14.18
2022-11-25T00:32:05.027Z,14.50
2022-11-25T00:32:16.910Z,14.88
2022-11-25T00:32:28.886Z,13.63
2022-11-25T00:32:40.793Z,12.68
2022-11-25T00:32:53.967Z,12.57
2022-11-25T00:33:06.519Z,12.25
2022-11-25T00:33:18.526Z,11.45
2022-11-25T00:33:30.436Z,11.80
2022-11-25T00:33:42.913Z,12.45
2022-11-25T00:33:55.432Z,12.75
2022-11-25T00:34:07.877Z,13.70
2022-11-25T00:34:19.806Z,15.30
2022-11-25T00:34:31.682Z,14.38
2022-11-25T00:34:43.606Z,15.02
2022-11-25T00:34:55.516Z,14.75
2022-11-25T00:35:07.847Z,13.40
2022-11-25T00:35:19.918Z,14.02
2022-11-25T00:35:34.384Z,15.32
2022-11-25T00:35:46.297Z,14.23
2022-11-25T00:36:01.310Z,11.65
2022-11-25T00:36:28.921Z,12.77
2022-11-25T00:36:41.145Z,13.02
2022-11-25T00:36:56.429Z,13.13
2022-11-25T00:37:08.341Z,15.32
2022-11-25T00:37:20.229Z,16.88
2022-11-25T00:37:32.468Z,15.13
2022-11-25T00:37:44.393Z,15.32
2022-11-25T00:37:56.354Z,15.68
2022-11-25T00:38:08.294Z,14.23
2022-11-25T00:38:20.233Z,13.10
2022-11-25T00:38:32.209Z,12.95
2022-11-25T00:38:44.712Z,13.38
2022-11-25T00:39:01.931Z,12.75
2022-11-25T00:39:16.064Z,10.88
2022-11-25T00:39:28.774Z,10.95
2022-11-25T00:39:40.692Z,11.77
2022-11-25T00:39:52.566Z,12.73
2022-11-25T00:40:05.348Z,13.00
2022-11-25T00:40:17.328Z,11.10
2022-11-25T00:40:29.290Z,10.38
2022-11-25T00:40:41.181Z,10.65
2022-11-25T00:41:13.224Z,10.95
2022-11-25T00:41:44.304Z,10.98
2022-11-25T00:42:14.697Z,14.05
2022-11-25T00:42:45.019Z,10.65
2022-11-25T00:43:15.332Z,12.00
2022-11-25T00:43:45.693Z,9.50
2022-11-25T00:44:17.042Z,11.20
2022-11-25T00:44:41.832Z,11.82
2022-11-25T00:44:54.178Z,12.45
2022-11-25T00:45:06.738Z,10.75
2022-11-25T00:45:18.629Z,11.30
2022-11-25T00:45:30.523Z,9.68
2022-11-25T00:45:43.151Z,8.65
2022-11-25T00:45:55.217Z,9.35
2022-11-25T00:46:07.202Z,9.73
2022-11-25T00:46:19.147Z,11.18
2022-11-25T00:46:31.117Z,12.50
2022-11-25T00:46:43.243Z,11.73
2022-11-25T00:46:55.550Z,9.52
2022-11-25T00:47:25.493Z,8.73
2022-11-25T00:47:37.361Z,11.93
2022-11-25T00:47:49.234Z,12.10
2022-11-25T00:48:01.097Z,11.20
2022-11-25T00:48:13.077Z,11.80
2022-11-25T00:48:25.004Z,10.18
2022-11-25T00:48:36.897Z,11.60
2022-11-25T00:48:48.813Z,11.77
2022-11-25T00:49:00.679Z,10.50
2022-11-25T00:49:12.587Z,10.32
2022-11-25T00:49:24.556Z,9.75
2022-11-25T00:49:37.884Z,9.90
2022-11-25T00:49:53.380Z,10.88
2022-11-25T00:50:05.776Z,11.23
2022-11-25T00:50:17.656Z,10.13
2022-11-25T00:50:29.631Z,9.68
2022-11-25T00:50:42.680Z,10.48
2022-11-25T00:50:54.562Z,11.32
2022-11-25T00:51:06.430Z,11.88
2022-11-25T00:51:18.400Z,13.40
2022-11-25T00:51:30.399Z,13.38
2022-11-25T00:51:42.280Z,12.48
2022-11-25T00:51:54.633Z,12.40
2022-11-25T00:52:07.161Z,14.75
2022-11-25T00:52:24.362Z,15.55
2022-11-25T00:52:37.032Z,15.55
2022-11-25T00:52:48.996Z,14.68
2022-11-25T00:53:00.914Z,13.35
2022-11-25T00:53:12.781Z,13.35
2022-11-25T00:53:25.190Z,13.98
2022-11-25T00:53:37.059Z,12.90
2022-11-25T00:53:48.949Z,13.00
2022-11-25T00:54:00.919Z,13.02
2022-11-25T00:54:12.921Z,14.50
2022-11-25T00:54:24.898Z,16.30
2022-11-25T00:54:37.034Z,15.50
2022-11-25T00:54:49.932Z,13.45
2022-11-25T00:55:01.807Z,15.07
2022-11-25T00:55:13.811Z,14.15
2022-11-25T00:55:45.695Z,13.52
2022-11-25T00:56:13.892Z,11.60
2022-11-25T00:56:26.300Z,13.02
2022-11-25T00:56:38.166Z,12.52
2022-11-25T00:56:50.725Z,11.65
2022-11-25T00:57:02.792Z,12.82
2022-11-25T00:57:16.294Z,12.45
2022-11-25T00:57:29.413Z,11.65
2022-11-25T00:57:41.328Z,12.02
2022-11-25T00:57:53.249Z,11.80
2022-11-25T00:58:05.169Z,12.55
2022-11-25T00:58:17.097Z,12.60
2022-11-25T00:58:28.978Z,12.50
2022-11-25T00:58:44.774Z,11.57
2022-11-25T00:58:57.288Z,12.13
2022-11-25T00:59:09.658Z,14.00
2022-11-25T00:59:21.678Z,14.45
2022-11-25T00:59:33.618Z,14.65
2022-11-25T00:59:46.165Z,14.52
2022-11-25T00:59:58.041Z,14.85
2022-11-25T01:00:11.492Z,13.25
2022-11-25T01:00:23.520Z,15.02
2022-11-25T01:00:35.442Z,15.40
2022-11-25T01:00:47.433Z,15.07
2022-11-25T01:01:02.051Z,14.13
2022-11-25T01:01:14.150Z,13.57
2022-11-25T01:01:26.301Z,11.68
2022-11-25T01:01:38.732Z,11.88
2022-11-25T01:01:50.881Z,12.23
2022-11-25T01:02:03.102Z,12.32
2022-11-25T01:02:16.890Z,13.43
2022-11-25T01:02:28.970Z,14.82
2022-11-25T01:02:40.944Z,13.73
2022-11-25T01:02:52.874Z,14.93
2022-11-25T01:03:04.817Z,14.55
2022-11-25T01:03:16.734Z,12.55
2022-11-25T01:03:28.631Z,11.95
2022-11-25T01:03:40.669Z,11.85
2022-11-25T01:03:53.899Z,13.93
2022-11-25T01:04:07.156Z,15.55
2022-11-25T01:04:19.181Z,16.25
2022-11-25T01:04:31.230Z,16.58
2022-11-25T01:04:43.117Z,15.55
2022-11-25T01:04:55.104Z,17.08
2022-11-25T01:05:07.306Z,17.02
2022-11-25T01:05:19.182Z,16.33
2022-11-25T01:05:32.437Z,14.85
2022-11-25T01:05:44.320Z,15.18
2022-11-25T01:06:01.376Z,15.70
2022-11-25T01:06:13.291Z,16.60
2022-11-25T01:06:25.409Z,15.38
2022-11-25T01:06:38.329Z,14.10
2022-11-25T01:06:50.263Z,12.98
2022-11-25T01:07:02.398Z,13.82
2022-11-25T01:07:15.376Z,14.43
2022-11-25T01:07:27.574Z,19.48
2022-11-25T01:07:39.468Z,19.95
2022-11-25T01:07:51.461Z,16.45
2022-11-25T01:08:03.457Z,13.07
2022-11-25T01:08:15.441Z,14.05
2022-11-25T01:08:29.726Z,15.30
2022-11-25T01:08:41.709Z,16.23
2022-11-25T01:08:53.875Z,14.32
2022-11-25T01:09:07.604Z,13.02
2022-11-25T01:09:19.993Z,13.90
2022-11-25T01:09:32.266Z,13.43
2022-11-25T01:09:44.327Z,12.10
2022-11-25T01:09:56.987Z,13.38
2022-11-25T01:10:09.302Z,13.95
2022-11-25T01:10:21.292Z,14.70
2022-11-25T01:10:33.207Z,12.93
2022-11-25T01:10:45.125Z,12.50
2022-11-25T01:11:00.909Z,12.75
2022-11-25T01:11:15.518Z,12.90
2022-11-25T01:11:27.433Z,13.15
2022-11-25T01:11:40.056Z,13.13
2022-11-25T01:11:52.788Z,11.32
2022-11-25T01:12:05.090Z,11.10
2022-11-25T01:12:17.367Z,12.82
2022-11-25T01:12:29.329Z,14.00
2022-11-25T01:12:41.190Z,13.25
2022-11-25T01:12:53.111Z,13.70
2022-11-25T01:13:04.975Z,15.15
2022-11-25T01:13:16.844Z,13.02
2022-11-25T01:13:28.997Z,12.57
2022-11-25T01:13:41.818Z,13.70
2022-11-25T01:14:00.881Z,15.80
2022-11-25T01:14:13.225Z,13.80
2022-11-25T01:14:25.603Z,11.93
2022-11-25T01:14:37.902Z,14.60
2022-11-25T01:14:49.973Z,14.38
2022-11-25T01:15:01.896Z,11.02
2022-11-25T01:15:13.828Z,10.63
2022-11-25T01:15:25.717Z,10.75
2022-11-25T01:15:37.731Z,11.50
2022-11-25T01:15:49.589Z,13.15
2022-11-25T01:16:06.240Z,13.90
2022-11-25T01:16:19.934Z,13.93
2022-11-25T01:16:32.137Z,12.73
2022-11-25T01:16:44.165Z,12.18
2022-11-25T01:16:56.159Z,11.40
2022-11-25T01:17:08.250Z,11.70
2022-11-25T01:17:20.168Z,12.00
2022-11-25T01:17:32.463Z,11.43
2022-11-25T01:17:44.468Z,12.13
2022-11-25T01:17:56.387Z,13.63
2022-11-25T01:18:08.301Z,15.30
2022-11-25T01:18:20.533Z,15.23
2022-11-25T01:18:33.049Z,13.95
2022-11-25T01:18:45.668Z,12.15
2022-11-25T01:19:01.832Z,11.18
2022-11-25T01:19:14.397Z,12.02
2022-11-25T01:19:26.362Z,12.75
2022-11-25T01:19:40.219Z,14.13
2022-11-25T01:19:52.178Z,11.63
2022-11-25T01:20:04.529Z,10.80
2022-11-25T01:20:16.939Z,11.38
2022-11-25T01:20:28.863Z,12.55
2022-11-25T01:20:40.737Z,11.70
2022-11-25T01:20:52.642Z,10.98
2022-11-25T01:21:28.930Z,10.23
2022-11-25T01:21:40.909Z,15.75
2022-11-25T01:21:52.788Z,12.75
2022-11-25T01:22:04.730Z,12.63
2022-11-25T01:22:16.613Z,10.93
2022-11-25T01:22:28.478Z,10.00
2022-11-25T01:22:40.362Z,10.77
2022-11-25T01:22:53.007Z,12.75
2022-11-25T01:23:04.900Z,12.88
2022-11-25T01:23:16.775Z,12.00
2022-11-25T01:23:28.734Z,10.57
2022-11-25T01:23:41.938Z,10.13
2022-11-25T01:23:54.262Z,9.75
2022-11-25T01:24:07.402Z,10.80
2022-11-25T01:24:20.565Z,10.88
2022-11-25T01:24:32.937Z,10.98
2022-11-25T01:24:44.937Z,12.35
2022-11-25T01:24:56.861Z,12.48
2022-11-25T01:25:08.921Z,11.55
2022-11-25T01:25:20.857Z,10.52
2022-11-25T01:25:36.876Z,9.93
2022-11-25T01:25:48.817Z,11.68
2022-11-25T01:26:05.161Z,12.18
2022-11-25T01:26:19.877Z,12.50
2022-11-25T01:26:32.617Z,14.32
2022-11-25T01:26:44.856Z,13.35
2022-11-25T01:26:56.855Z,11.05
2022-11-25T01:27:08.730Z,10.43
2022-11-25T01:27:20.692Z,10.43
2022-11-25T01:27:33.298Z,10.00
2022-11-25T01:27:45.215Z,10.88
2022-11-25T01:27:57.088Z,10.80
2022-11-25T01:28:09.027Z,12.50
2022-11-25T01:28:20.901Z,12.75
2022-11-25T01:28:33.049Z,12.25
2022-11-25T01:28:45.336Z,11.40
2022-11-25T01:29:00.272Z,10.70
2022-11-25T01:29:18.199Z,11.32
2022-11-25T01:29:30.284Z,10.88
2022-11-25T01:29:42.920Z,11.15
2022-11-25T01:29:54.851Z,13.13
2022-11-25T01:30:07.605Z,12.07
2022-11-25T01:30:19.529Z,12.70
2022-11-25T01:30:31.810Z,12.07
2022-11-25T01:30:43.754Z,11.40
2022-11-25T01:31:03.042Z,9.18
2022-11-25T01:31:14.970Z,10.35
2022-11-25T01:31:30.641Z,10.38
2022-11-25T01:31:43.465Z,9.20
2022-11-25T01:31:56.753Z,9.63
2022-11-25T01:32:08.764Z,12.32
2022-11-25T01:32:20.730Z,11.73
2022-11-25T01:32:32.605Z,11.35
2022-11-25T01:32:44.475Z,9.85
2022-11-25T01:32:56.510Z,11.75
2022-11-25T01:33:08.454Z,11.77
2022-11-25T01:33:20.352Z,11.77
2022-11-25T01:33:33.295Z,11.00
2022-11-25T01:33:46.807Z,10.88
2022-11-25T01:34:07.937Z,12.30
2022-11-25T01:34:25.578Z,11.05
2022-11-25T01:34:37.985Z,8.70
2022-11-25T01:34:50.114Z,8.15
2022-11-25T01:35:01.988Z,7.80
2022-11-25T01:35:13.873Z,12.13
2022-11-25T01:35:25.754Z,12.10
2022-11-25T01:35:38.598Z,8.73
2022-11-25T01:35:50.465Z,7.72
2022-11-25T01:36:08.125Z,8.68
2022-11-25T01:36:20.034Z,9.55
2022-11-25T01:36:32.169Z,8.82
2022-11-25T01:36:44.142Z,8.48
2022-11-25T01:36:56.014Z,9.23
2022-11-25T01:37:07.939Z,8.55
2022-11-25T01:37:19.809Z,6.72
2022-11-25T01:37:31.947Z,7.68
2022-11-25T01:37:43.812Z,8.73
2022-11-25T01:37:55.705Z,8.80
2022-11-25T01:38:07.603Z,8.73
2022-11-25T01:38:19.509Z,9.20
2022-11-25T01:38:32.452Z,10.10
2022-11-25T01:38:45.781Z,11.15
2022-11-25T01:38:59.621Z,11.55
2022-11-25T01:39:25.630Z,11.43
2022-11-25T01:39:42.211Z,10.65
2022-11-25T01:39:54.178Z,10.30
2022-11-25T01:40:06.956Z,12.73
2022-11-25T01:40:18.850Z,14.63
2022-11-25T01:40:30.710Z,14.65
2022-11-25T01:40:42.617Z,12.93
2022-11-25T01:40:54.557Z,12.90
2022-11-25T01:41:08.454Z,12.57
2022-11-25T01:41:22.148Z,10.98
2022-11-25T01:41:35.419Z,10.73
2022-11-25T01:41:48.263Z,9.98
2022-11-25T01:42:01.369Z,9.52
2022-11-25T01:42:13.333Z,9.63
2022-11-25T01:42:30.232Z,9.30
2022-11-25T01:42:49.065Z,9.80
2022-11-25T01:43:00.955Z,10.45
2022-11-25T01:43:16.105Z,11.80
2022-11-25T01:43:28.765Z,12.05
2022-11-25T01:43:41.456Z,11.32
2022-11-25T01:44:18.067Z,9.82
2022-11-25T01:44:32.400Z,12.00
2022-11-25T01:44:44.342Z,11.45
2022-11-25T01:45:20.801Z,13.27
2022-11-25T01:45:37.570Z,11.30
2022-11-25T01:45:49.768Z,13.02
2022-11-25T01:46:04.225Z,11.85
2022-11-25T01:46:24.068Z,10.93
2022-11-25T01:47:03.606Z,10.60
2022-11-25T01:47:24.776Z,13.65
2022-11-25T01:47:36.687Z,13.13
2022-11-25T01:47:56.494Z,12.02
2022-11-25T01:48:22.006Z,14.05
2022-11-25T01:48:38.813Z,15.93
2022-11-25T01:48:56.427Z,18.33
2022-11-25T01:49:15.091Z,15.43
2022-11-25T01:49:32.459Z,10.73
2022-11-25T01:49:46.908Z,9.80
2022-11-25T01:50:04.894Z,10.27
2022-11-25T01:50:20.793Z,9.15
2022-11-25T01:50:35.044Z,9.25
2022-11-25T01:50:48.459Z,8.27
2022-11-25T01:51:00.459Z,8.02
2022-11-25T01:51:21.974Z,8.80
2022-11-25T01:51:36.348Z,10.00
2022-11-25T01:52:06.137Z,10.18
2022-11-25T01:52:29.091Z,9.85
2022-11-25T01:52:45.809Z,9.75
2022-11-25T01:52:58.351Z,8.95
2022-11-25T01:53:13.706Z,8.05
2022-11-25T01:53:26.348Z,8.48
2022-11-25T01:53:38.302Z,9.45
2022-11-25T01:53:52.423Z,11.68
2022-11-25T01:54:07.377Z,12.93
2022-11-25T01:54:23.965Z,10.93
2022-11-25T01:54:43.922Z,8.82
2022-11-25T01:55:02.715Z,10.73
2022-11-25T01:55:20.565Z,9.20
2022-11-25T01:55:34.835Z,8.52
2022-11-25T01:55:53.596Z,8.77
2022-11-25T01:56:06.698Z,9.85
2022-11-25T01:56:19.230Z,11.10
2022-11-25T01:56:35.239Z,11.88
2022-11-25T01:56:51.750Z,9.13
2022-11-25T01:57:09.429Z,7.85
2022-11-25T01:57:34.613Z,9.38
2022-11-25T01:58:25.626Z,9.18
2022-11-25T01:58:38.437Z,10.88
2022-11-25T01:58:50.502Z,10.32
2022-11-25T01:59:02.904Z,8.80
2022-11-25T01:59:14.996Z,8.52
2022-11-25T01:59:29.636Z,10.95
2022-11-25T01:59:48.333Z,11.43
2022-11-25T02:00:04.918Z,11.25
2022-11-25T02:00:17.525Z,13.30
2022-11-25T02:00:29.499Z,12.88
2022-11-25T02:00:44.070Z,13.70
2022-11-25T02:00:56.146Z,12.85
2022-11-25T02:01:08.618Z,12.85
2022-11-25T02:01:22.046Z,12.23
2022-11-25T02:01:34.229Z,11.70
2022-11-25T02:01:47.013Z,10.48
2022-11-25T02:02:00.576Z,9.25
2022-11-25T02:02:14.540Z,9.00
2022-11-25T02:02:28.228Z,9.60
2022-11-25T02:02:40.497Z,9.63
2022-11-25T02:02:54.767Z,11.48
2022-11-25T02:03:07.912Z,12.15
2022-11-25T02:03:36.881Z,9.80
2022-11-25T02:03:52.659Z,10.18
2022-11-25T02:04:06.099Z,10.18
2022-11-25T02:04:20.214Z,8.43
2022-11-25T02:04:35.886Z,8.02
2022-11-25T02:04:48.813Z,8.02
2022-11-25T02:05:03.425Z,8.63
2022-11-25T02:05:21.012Z,10.35
2022-11-25T02:05:42.081Z,10.73
2022-11-25T02:06:17.073Z,9.32
2022-11-25T02:06:35.159Z,10.18
2022-11-25T02:06:55.249Z,10.07
2022-11-25T02:07:15.494Z,10.50
2022-11-25T02:07:34.806Z,13.77
2022-11-25T02:07:49.328Z,9.13
2022-11-25T02:08:02.315Z,7.90
2022-11-25T02:08:15.890Z,7.30
2022-11-25T02:08:29.463Z,8.77
2022-11-25T02:08:46.749Z,10.40
2022-11-25T02:09:04.487Z,9.35
2022-11-25T02:09:18.443Z,9.40
2022-11-25T02:09:30.902Z,10.93
2022-11-25T02:09:43.885Z,13.10
2022-11-25T02:09:56.461Z,13.50
2022-11-25T02:10:15.717Z,10.52
2022-11-25T02:10:31.745Z,11.15
2022-11-25T02:10:44.773Z,12.38
2022-11-25T02:10:58.441Z,10.77
2022-11-25T02:11:10.358Z,11.30
2022-11-25T02:11:26.677Z,10.27
2022-11-25T02:11:41.704Z,10.00
2022-11-25T02:11:54.015Z,12.13
2022-11-25T02:12:06.306Z,12.32
2022-11-25T02:12:20.605Z,12.07
2022-11-25T02:12:35.473Z,9.93
2022-11-25T02:12:48.079Z,8.75
2022-11-25T02:13:00.787Z,9.45
2022-11-25T02:13:12.786Z,8.82
2022-11-25T02:13:25.017Z,9.32
2022-11-25T02:13:37.345Z,10.48
2022-11-25T02:13:51.335Z,11.52
2022-11-25T02:14:03.719Z,11.30
2022-11-25T02:14:18.770Z,9.25
2022-11-25T02:14:30.699Z,9.13
2022-11-25T02:14:43.402Z,8.65
2022-11-25T02:14:56.774Z,9.45
2022-11-25T02:15:09.131Z,10.57
2022-11-25T02:15:22.262Z,13.15
2022-11-25T02:15:35.208Z,13.32
2022-11-25T02:15:47.123Z,11.82
2022-11-25T02:15:59.106Z,9.55
2022-11-25T02:16:11.058Z,10.13
2022-11-25T02:16:23.154Z,10.20
2022-11-25T02:16:35.342Z,8.95
2022-11-25T02:16:47.366Z,8.10
2022-11-25T02:17:01.280Z,8.55
2022-11-25T02:17:13.299Z,9.18
2022-11-25T02:17:25.546Z,8.70
2022-11-25T02:17:37.569Z,10.60
2022-11-25T02:17:49.779Z,11.70
2022-11-25T02:18:02.005Z,12.30
2022-11-25T02:18:13.999Z,11.52
2022-11-25T02:18:26.877Z,12.95
2022-11-25T02:18:38.901Z,11.23
2022-11-25T02:18:51.515Z,10.45
2022-11-25T02:19:03.911Z,11.05
2022-11-25T02:19:39.573Z,12.15
2022-11-25T02:20:12.515Z,8.35
2022-11-25T02:20:25.356Z,9.82
2022-11-25T02:20:39.727Z,14.32
2022-11-25T02:20:52.228Z,16.00
2022-11-25T02:21:04.433Z,12.95
2022-11-25T02:21:36.634Z,12.57
2022-11-25T02:21:54.544Z,12.98
2022-11-25T02:22:15.382Z,11.88
2022-11-25T02:22:51.828Z,11.50
2022-11-25T02:23:26.275Z,11.20
2022-11-25T02:23:53.638Z,10.25
2022-11-25T02:24:34.647Z,11.98
2022-11-25T02:24:53.329Z,9.68
2022-11-25T02:25:18.101Z,9.70
2022-11-25T02:25:32.676Z,9.43
2022-11-25T02:25:46.640Z,8.95
2022-11-25T02:25:58.916Z,11.80
2022-11-25T02:26:11.080Z,12.10
2022-11-25T02:26:23.573Z,10.00
2022-11-25T02:26:35.851Z,6.97
2022-11-25T02:26:47.835Z,7.28
2022-11-25T02:27:00.100Z,7.28
2022-11-25T02:27:12.794Z,8.00
2022-11-25T02:27:24.962Z,10.52
2022-11-25T02:27:36.901Z,10.30
2022-11-25T02:27:55.169Z,8.55
2022-11-25T02:28:17.689Z,9.50
2022-11-25T02:28:31.705Z,8.73
2022-11-25T02:28:44.622Z,12.27
2022-11-25T02:28:57.488Z,13.90
2022-11-25T02:29:09.935Z,11.88
2022-11-25T02:29:22.453Z,11.18
2022-11-25T02:29:35.163Z,11.98
2022-11-25T02:29:48.534Z,11.18
2022-11-25T02:30:00.607Z,8.82
2022-11-25T02:30:13.691Z,7.13
2022-11-25T02:30:25.837Z,8.52
2022-11-25T02:30:38.496Z,9.48
2022-11-25T02:30:51.490Z,10.70
2022-11-25T02:31:03.585Z,10.25
2022-11-25T02:31:21.973Z,8.57
2022-11-25T02:31:34.048Z,8.98
2022-11-25T02:31:50.310Z,9.68
2022-11-25T02:32:02.452Z,10.05
2022-11-25T02:32:14.430Z,9.80
2022-11-25T02:32:26.509Z,9.45
2022-11-25T02:32:44.465Z,10.13
2022-11-25T02:32:58.803Z,9.85
2022-11-25T02:33:11.383Z,10.55
2022-11-25T02:33:24.208Z,10.60
2022-11-25T02:33:36.380Z,11.02
2022-11-25T02:33:48.547Z,10.55
2022-11-25T02:34:00.495Z,10.73
2022-11-25T02:34:12.437Z,9.73
2022-11-25T02:34:24.359Z,9.15
2022-11-25T02:34:36.575Z,9.02
2022-11-25T02:34:49.558Z,10.15
2022-11-25T02:35:01.493Z,11.98
2022-11-25T02:35:26.777Z,11.52
2022-11-25T02:36:03.286Z,12.13
2022-11-25T02:36:21.489Z,9.27
2022-11-25T02:36:34.205Z,8.68
2022-11-25T02:36:46.151Z,9.23
2022-11-25T02:36:59.249Z,9.27
2022-11-25T02:37:11.233Z,11.00
2022-11-25T02:37:24.434Z,12.10
2022-11-25T02:37:36.382Z,10.07
2022-11-25T02:37:48.327Z,10.40
2022-11-25T02:38:17.440Z,9.77
2022-11-25T02:38:40.782Z,11.57
2022-11-25T02:39:00.568Z,9.17
2022-11-25T02:39:13.445Z,9.45
2022-11-25T02:39:25.721Z,10.27
2022-11-25T02:39:37.718Z,11.07
2022-11-25T02:39:51.488Z,10.95
2022-11-25T02:40:03.682Z,10.90
2022-11-25T02:40:16.135Z,10.43
2022-11-25T02:40:29.252Z,9.23
2022-11-25T02:40:54.971Z,10.02
2022-11-25T02:41:13.357Z,9.02
2022-11-25T02:41:32.631Z,12.15
2022-11-25T02:41:49.971Z,12.73
2022-11-25T02:42:01.924Z,10.38
2022-11-25T02:42:15.837Z,12.70
2022-11-25T02:42:29.834Z,12.80
2022-11-25T02:42:41.826Z,12.63
2022-11-25T02:42:56.557Z,12.32
2022-11-25T02:43:09.025Z,12.23
2022-11-25T02:43:21.962Z,11.93
2022-11-25T02:43:33.879Z,10.75
2022-11-25T02:43:45.916Z,11.32
2022-11-25T02:43:58.413Z,11.02
2022-11-25T02:44:10.481Z,11.98
2022-11-25T02:44:22.684Z,14.02
2022-11-25T02:44:34.811Z,14.88
2022-11-25T02:44:48.500Z,13.25
2022-11-25T02:45:00.428Z,11.50
2022-11-25T02:45:15.586Z,12.48
2022-11-25T02:45:44.774Z,13.65
2022-11-25T02:46:03.956Z,10.23
2022-11-25T02:46:22.419Z,10.45
2022-11-25T02:46:34.901Z,10.85
2022-11-25T02:46:46.786Z,11.10
2022-11-25T02:46:58.901Z,11.02
2022-11-25T02:47:10.823Z,11.20
2022-11-25T02:47:22.694Z,10.52
2022-11-25T02:47:34.620Z,10.10
2022-11-25T02:47:46.588Z,10.10
2022-11-25T02:47:59.193Z,10.48
2022-11-25T02:48:11.213Z,10.18
2022-11-25T02:48:39.697Z,10.98
2022-11-25T02:49:13.485Z,11.52
2022-11-25T02:49:25.410Z,10.85
2022-11-25T02:49:37.360Z,11.43
2022-11-25T02:49:49.269Z,11.95
2022-11-25T02:50:01.168Z,13.13
2022-11-25T02:50:13.842Z,13.85
2022-11-25T02:50:25.803Z,13.93
2022-11-25T02:50:37.718Z,12.52
2022-11-25T02:50:50.088Z,11.82
2022-11-25T02:51:03.053Z,11.38
2022-11-25T02:51:17.856Z,10.73
2022-11-25T02:51:31.535Z,12.07
2022-11-25T02:51:46.379Z,13.10
2022-11-25T02:51:58.371Z,13.25
2022-11-25T02:52:10.700Z,12.55
2022-11-25T02:52:22.656Z,9.63
2022-11-25T02:52:34.577Z,8.63
2022-11-25T02:52:46.714Z,9.05
2022-11-25T02:52:58.696Z,10.30
2022-11-25T02:53:11.098Z,10.70
2022-11-25T02:53:23.296Z,10.02
2022-11-25T02:53:35.664Z,9.48
2022-11-25T02:53:47.698Z,8.90
2022-11-25T02:54:01.351Z,9.23
2022-11-25T02:54:14.641Z,10.75
2022-11-25T02:54:26.564Z,10.93
2022-11-25T02:54:38.534Z,10.60
2022-11-25T02:54:50.706Z,11.20
2022-11-25T02:55:02.624Z,10.27
2022-11-25T02:55:14.795Z,10.50
2022-11-25T02:55:26.794Z,10.40
2022-11-25T02:55:38.882Z,10.85
2022-11-25T02:55:51.475Z,11.23
2022-11-25T02:56:03.518Z,12.15
2022-11-25T02:56:16.961Z,13.23
2022-11-25T02:56:32.213Z,12.18
2022-11-25T02:56:44.392Z,9.00
2022-11-25T02:56:56.458Z,7.78
2022-11-25T02:57:08.524Z,8.50
2022-11-25T02:57:20.849Z,9.05
2022-11-25T02:57:32.716Z,9.80
2022-11-25T02:57:44.604Z,9.75
2022-11-25T02:57:56.492Z,10.50
2022-11-25T02:58:09.193Z,9.52
2022-11-25T02:58:21.365Z,10.75
2022-11-25T02:58:33.468Z,10.85
2022-11-25T02:58:45.809Z,11.85
2022-11-25T02:58:58.404Z,12.15
2022-11-25T02:59:11.206Z,11.82
2022-11-25T02:59:23.124Z,9.25
2022-11-25T02:59:35.093Z,8.55
2022-11-25T02:59:46.989Z,8.93
2022-11-25T02:59:58.898Z,10.07
2022-11-25T03:00:11.437Z,11.43
2022-11-25T03:00:23.724Z,12.30
2022-11-25T03:00:35.877Z,10.25
2022-11-25T03:00:48.334Z,9.32
2022-11-25T03:01:00.376Z,9.65
2022-11-25T03:01:12.405Z,9.52
2022-11-25T03:01:24.424Z,7.80
2022-11-25T03:01:38.087Z,7.43